sensor_id;sensor_type;location;lat;lon;timestamp;P1;durP1;ratioP1;P2;durP2;ratioP2
69588;SDS011;56792;50.644;17.984;2023-03-11T00:01:03;3.10;;;1.50;;
69588;SDS011;56792;50.644;17.984;2023-03-11T00:03:35;3.10;;;1.80;;
69588;SDS011;56792;50.644;17.984;2023-03-11T00:06:08;3.10;;;1.50;;
69588;SDS011;56792;50.644;17.984;2023-03-11T00:08:40;2.30;;;1.20;;
69588;SDS011;56792;50.644;17.984;2023-03-11T00:11:12;3.00;;;1.20;;
69588;SDS011;56792;50.644;17.984;2023-03-11T00:13:45;2.90;;;1.20;;
69588;SDS011;56792;50.644;17.984;2023-03-11T00:16:17;3.70;;;1.50;;
69588;SDS011;56792;50.644;17.984;2023-03-11T00:18:52;2.20;;;1.20;;
69588;SDS011;56792;50.644;17.984;2023-03-11T00:21:25;3.00;;;1.40;;
69588;SDS011;56792;50.644;17.984;2023-03-11T00:23:57;2.10;;;1.20;;
69588;SDS011;56792;50.644;17.984;2023-03-11T00:26:31;2.70;;;1.30;;
69588;SDS011;56792;50.644;17.984;2023-03-11T00:29:03;3.00;;;1.50;;
69588;SDS011;56792;50.644;17.984;2023-03-11T00:31:36;3.40;;;1.40;;
69588;SDS011;56792;50.644;17.984;2023-03-11T00:34:09;2.70;;;1.20;;
69588;SDS011;56792;50.644;17.984;2023-03-11T00:36:41;2.50;;;1.30;;
69588;SDS011;56792;50.644;17.984;2023-03-11T00:39:13;2.90;;;1.40;;
69588;SDS011;56792;50.644;17.984;2023-03-11T00:41:46;2.90;;;1.70;;
69588;SDS011;56792;50.644;17.984;2023-03-11T00:44:19;3.40;;;1.70;;
69588;SDS011;56792;50.644;17.984;2023-03-11T00:46:53;3.70;;;1.60;;
69588;SDS011;56792;50.644;17.984;2023-03-11T00:49:26;2.10;;;1.00;;
69588;SDS011;56792;50.644;17.984;2023-03-11T00:51:58;2.90;;;1.10;;
69588;SDS011;56792;50.644;17.984;2023-03-11T00:54:30;3.70;;;1.40;;
69588;SDS011;56792;50.644;17.984;2023-03-11T00:57:03;3.10;;;1.50;;
69588;SDS011;56792;50.644;17.984;2023-03-11T00:59:36;3.40;;;1.40;;
69588;SDS011;56792;50.644;17.984;2023-03-11T01:02:08;2.70;;;1.60;;
69588;SDS011;56792;50.644;17.984;2023-03-11T01:04:40;3.10;;;1.50;;
69588;SDS011;56792;50.644;17.984;2023-03-11T01:07:13;4.00;;;1.60;;
69588;SDS011;56792;50.644;17.984;2023-03-11T01:09:45;2.80;;;1.40;;
69588;SDS011;56792;50.644;17.984;2023-03-11T01:12:18;2.80;;;1.30;;
69588;SDS011;56792;50.644;17.984;2023-03-11T01:14:50;2.70;;;1.40;;
69588;SDS011;56792;50.644;17.984;2023-03-11T01:17:23;3.60;;;1.70;;
69588;SDS011;56792;50.644;17.984;2023-03-11T01:19:55;3.20;;;1.40;;
69588;SDS011;56792;50.644;17.984;2023-03-11T01:22:28;3.00;;;1.50;;
69588;SDS011;56792;50.644;17.984;2023-03-11T01:25:00;2.90;;;1.50;;
69588;SDS011;56792;50.644;17.984;2023-03-11T01:27:33;3.20;;;1.60;;
69588;SDS011;56792;50.644;17.984;2023-03-11T01:30:08;4.10;;;1.60;;
69588;SDS011;56792;50.644;17.984;2023-03-11T01:32:43;3.50;;;1.70;;
69588;SDS011;56792;50.644;17.984;2023-03-11T01:35:17;3.30;;;1.80;;
69588;SDS011;56792;50.644;17.984;2023-03-11T01:37:51;3.30;;;1.40;;
69588;SDS011;56792;50.644;17.984;2023-03-11T01:40:28;2.70;;;1.30;;
69588;SDS011;56792;50.644;17.984;2023-03-11T01:43:06;3.60;;;1.60;;
69588;SDS011;56792;50.644;17.984;2023-03-11T01:46:07;3.30;;;1.40;;
69588;SDS011;56792;50.644;17.984;2023-03-11T01:48:45;3.00;;;1.60;;
69588;SDS011;56792;50.644;17.984;2023-03-11T01:51:22;3.90;;;1.80;;
69588;SDS011;56792;50.644;17.984;2023-03-11T01:54:00;3.50;;;1.50;;
69588;SDS011;56792;50.644;17.984;2023-03-11T01:56:36;3.00;;;1.50;;
69588;SDS011;56792;50.644;17.984;2023-03-11T01:59:14;3.50;;;1.60;;
69588;SDS011;56792;50.644;17.984;2023-03-11T02:01:51;3.10;;;1.60;;
69588;SDS011;56792;50.644;17.984;2023-03-11T02:04:29;3.10;;;1.60;;
69588;SDS011;56792;50.644;17.984;2023-03-11T02:07:05;3.70;;;1.90;;
69588;SDS011;56792;50.644;17.984;2023-03-11T02:09:39;3.50;;;1.80;;
69588;SDS011;56792;50.644;17.984;2023-03-11T02:12:12;4.90;;;1.90;;
69588;SDS011;56792;50.644;17.984;2023-03-11T02:14:47;3.10;;;1.70;;
69588;SDS011;56792;50.644;17.984;2023-03-11T02:17:22;4.00;;;1.80;;
69588;SDS011;56792;50.644;17.984;2023-03-11T02:20:04;4.40;;;2.00;;
69588;SDS011;56792;50.644;17.984;2023-03-11T02:22:44;4.60;;;1.80;;
69588;SDS011;56792;50.644;17.984;2023-03-11T02:25:23;5.80;;;3.00;;
69588;SDS011;56792;50.644;17.984;2023-03-11T02:28:01;4.30;;;2.20;;
69588;SDS011;56792;50.644;17.984;2023-03-11T02:30:37;3.20;;;1.80;;
69588;SDS011;56792;50.644;17.984;2023-03-11T02:33:13;3.40;;;1.90;;
69588;SDS011;56792;50.644;17.984;2023-03-11T02:35:47;6.60;;;2.40;;
69588;SDS011;56792;50.644;17.984;2023-03-11T02:38:20;4.60;;;2.20;;
69588;SDS011;56792;50.644;17.984;2023-03-11T02:40:54;3.20;;;2.00;;
69588;SDS011;56792;50.644;17.984;2023-03-11T02:43:36;4.70;;;1.80;;
69588;SDS011;56792;50.644;17.984;2023-03-11T02:46:12;3.70;;;1.90;;
69588;SDS011;56792;50.644;17.984;2023-03-11T02:48:45;5.50;;;3.40;;
69588;SDS011;56792;50.644;17.984;2023-03-11T02:51:19;5.10;;;2.30;;
69588;SDS011;56792;50.644;17.984;2023-03-11T02:53:55;4.10;;;2.20;;
69588;SDS011;56792;50.644;17.984;2023-03-11T02:56:31;3.50;;;1.80;;
69588;SDS011;56792;50.644;17.984;2023-03-11T02:59:03;4.10;;;2.20;;
69588;SDS011;56792;50.644;17.984;2023-03-11T03:01:35;7.30;;;3.00;;
69588;SDS011;56792;50.644;17.984;2023-03-11T03:04:08;3.60;;;2.20;;
69588;SDS011;56792;50.644;17.984;2023-03-11T03:06:40;6.40;;;2.00;;
69588;SDS011;56792;50.644;17.984;2023-03-11T03:09:12;6.40;;;3.30;;
69588;SDS011;56792;50.644;17.984;2023-03-11T03:11:45;7.40;;;3.20;;
69588;SDS011;56792;50.644;17.984;2023-03-11T03:14:18;7.30;;;4.00;;
69588;SDS011;56792;50.644;17.984;2023-03-11T03:16:51;5.50;;;2.60;;
69588;SDS011;56792;50.644;17.984;2023-03-11T03:19:23;4.70;;;2.20;;
69588;SDS011;56792;50.644;17.984;2023-03-11T03:21:55;5.70;;;2.90;;
69588;SDS011;56792;50.644;17.984;2023-03-11T03:24:28;4.30;;;2.10;;
69588;SDS011;56792;50.644;17.984;2023-03-11T03:27:00;3.80;;;1.80;;
69588;SDS011;56792;50.644;17.984;2023-03-11T03:29:33;5.20;;;1.90;;
69588;SDS011;56792;50.644;17.984;2023-03-11T03:32:06;6.10;;;3.00;;
69588;SDS011;56792;50.644;17.984;2023-03-11T03:34:38;4.00;;;2.30;;
69588;SDS011;56792;50.644;17.984;2023-03-11T03:37:11;8.00;;;3.90;;
69588;SDS011;56792;50.644;17.984;2023-03-11T03:39:43;3.10;;;1.80;;
69588;SDS011;56792;50.644;17.984;2023-03-11T03:42:15;3.60;;;2.00;;
69588;SDS011;56792;50.644;17.984;2023-03-11T03:44:47;3.50;;;1.50;;
69588;SDS011;56792;50.644;17.984;2023-03-11T03:47:20;3.10;;;2.00;;
69588;SDS011;56792;50.644;17.984;2023-03-11T03:49:53;2.70;;;1.30;;
69588;SDS011;56792;50.644;17.984;2023-03-11T03:52:25;2.50;;;1.50;;
69588;SDS011;56792;50.644;17.984;2023-03-11T03:54:58;3.60;;;1.70;;
69588;SDS011;56792;50.644;17.984;2023-03-11T03:57:30;4.00;;;2.30;;
69588;SDS011;56792;50.644;17.984;2023-03-11T04:00:03;2.80;;;1.60;;
69588;SDS011;56792;50.644;17.984;2023-03-11T04:02:42;2.80;;;1.10;;
69588;SDS011;56792;50.644;17.984;2023-03-11T04:05:22;2.90;;;1.50;;
69588;SDS011;56792;50.644;17.984;2023-03-11T04:07:56;5.20;;;1.70;;
69588;SDS011;56792;50.644;17.984;2023-03-11T04:10:29;3.60;;;1.50;;
69588;SDS011;56792;50.644;17.984;2023-03-11T04:13:01;2.50;;;1.20;;
69588;SDS011;56792;50.644;17.984;2023-03-11T04:15:36;2.50;;;1.30;;
69588;SDS011;56792;50.644;17.984;2023-03-11T04:18:10;2.50;;;1.20;;
69588;SDS011;56792;50.644;17.984;2023-03-11T04:20:42;2.00;;;0.90;;
69588;SDS011;56792;50.644;17.984;2023-03-11T04:23:16;2.10;;;1.00;;
69588;SDS011;56792;50.644;17.984;2023-03-11T04:25:48;5.60;;;1.70;;
69588;SDS011;56792;50.644;17.984;2023-03-11T04:28:21;7.10;;;2.10;;
69588;SDS011;56792;50.644;17.984;2023-03-11T04:30:54;3.50;;;1.20;;
69588;SDS011;56792;50.644;17.984;2023-03-11T04:33:26;3.00;;;1.10;;
69588;SDS011;56792;50.644;17.984;2023-03-11T04:35:59;3.70;;;1.50;;
69588;SDS011;56792;50.644;17.984;2023-03-11T04:38:34;7.30;;;3.00;;
69588;SDS011;56792;50.644;17.984;2023-03-11T04:41:08;4.00;;;1.80;;
69588;SDS011;56792;50.644;17.984;2023-03-11T04:43:41;5.50;;;1.60;;
69588;SDS011;56792;50.644;17.984;2023-03-11T04:46:14;9.10;;;2.40;;
69588;SDS011;56792;50.644;17.984;2023-03-11T04:48:46;6.10;;;1.80;;
69588;SDS011;56792;50.644;17.984;2023-03-11T04:51:19;3.40;;;1.30;;
69588;SDS011;56792;50.644;17.984;2023-03-11T04:53:52;2.40;;;1.20;;
69588;SDS011;56792;50.644;17.984;2023-03-11T04:56:24;2.40;;;1.20;;
69588;SDS011;56792;50.644;17.984;2023-03-11T04:58:57;2.50;;;1.30;;
69588;SDS011;56792;50.644;17.984;2023-03-11T05:01:30;3.70;;;2.20;;
69588;SDS011;56792;50.644;17.984;2023-03-11T05:04:04;6.00;;;4.30;;
69588;SDS011;56792;50.644;17.984;2023-03-11T05:06:36;3.90;;;2.30;;
69588;SDS011;56792;50.644;17.984;2023-03-11T05:09:10;3.10;;;1.60;;
69588;SDS011;56792;50.644;17.984;2023-03-11T05:11:42;3.10;;;1.70;;
69588;SDS011;56792;50.644;17.984;2023-03-11T05:14:16;2.20;;;1.00;;
69588;SDS011;56792;50.644;17.984;2023-03-11T05:16:48;3.10;;;1.30;;
69588;SDS011;56792;50.644;17.984;2023-03-11T05:19:21;3.10;;;1.10;;
69588;SDS011;56792;50.644;17.984;2023-03-11T05:22:07;4.30;;;1.50;;
69588;SDS011;56792;50.644;17.984;2023-03-11T05:24:40;4.50;;;1.80;;
69588;SDS011;56792;50.644;17.984;2023-03-11T05:27:12;3.60;;;1.40;;
69588;SDS011;56792;50.644;17.984;2023-03-11T05:29:47;4.40;;;1.40;;
69588;SDS011;56792;50.644;17.984;2023-03-11T05:32:20;5.60;;;2.30;;
69588;SDS011;56792;50.644;17.984;2023-03-11T05:34:52;4.80;;;1.70;;
69588;SDS011;56792;50.644;17.984;2023-03-11T05:37:25;6.10;;;2.10;;
69588;SDS011;56792;50.644;17.984;2023-03-11T05:40:00;4.90;;;1.90;;
69588;SDS011;56792;50.644;17.984;2023-03-11T05:42:35;5.40;;;2.40;;
69588;SDS011;56792;50.644;17.984;2023-03-11T05:45:11;4.00;;;1.60;;
69588;SDS011;56792;50.644;17.984;2023-03-11T05:47:44;4.00;;;1.50;;
69588;SDS011;56792;50.644;17.984;2023-03-11T05:50:17;3.20;;;1.60;;
69588;SDS011;56792;50.644;17.984;2023-03-11T05:52:50;4.30;;;1.50;;
69588;SDS011;56792;50.644;17.984;2023-03-11T05:55:23;4.30;;;1.70;;
69588;SDS011;56792;50.644;17.984;2023-03-11T05:57:55;3.20;;;1.30;;
69588;SDS011;56792;50.644;17.984;2023-03-11T06:00:28;3.00;;;1.20;;
69588;SDS011;56792;50.644;17.984;2023-03-11T06:03:01;3.90;;;1.30;;
69588;SDS011;56792;50.644;17.984;2023-03-11T06:05:34;4.70;;;1.90;;
69588;SDS011;56792;50.644;17.984;2023-03-11T06:08:06;4.80;;;1.90;;
69588;SDS011;56792;50.644;17.984;2023-03-11T06:10:39;5.40;;;2.00;;
69588;SDS011;56792;50.644;17.984;2023-03-11T06:13:12;4.00;;;1.80;;
69588;SDS011;56792;50.644;17.984;2023-03-11T06:15:54;2.90;;;1.20;;
69588;SDS011;56792;50.644;17.984;2023-03-11T06:18:27;2.60;;;1.20;;
69588;SDS011;56792;50.644;17.984;2023-03-11T06:21:00;5.10;;;3.00;;
69588;SDS011;56792;50.644;17.984;2023-03-11T06:23:34;4.50;;;2.90;;
69588;SDS011;56792;50.644;17.984;2023-03-11T06:26:06;2.90;;;1.60;;
69588;SDS011;56792;50.644;17.984;2023-03-11T06:28:42;2.50;;;1.20;;
69588;SDS011;56792;50.644;17.984;2023-03-11T06:31:17;3.20;;;1.30;;
69588;SDS011;56792;50.644;17.984;2023-03-11T06:33:53;2.30;;;1.30;;
69588;SDS011;56792;50.644;17.984;2023-03-11T06:36:26;3.40;;;1.70;;
69588;SDS011;56792;50.644;17.984;2023-03-11T06:38:59;3.20;;;1.60;;
69588;SDS011;56792;50.644;17.984;2023-03-11T06:41:33;8.00;;;3.80;;
69588;SDS011;56792;50.644;17.984;2023-03-11T06:44:07;10.90;;;4.00;;
69588;SDS011;56792;50.644;17.984;2023-03-11T06:46:40;15.30;;;5.70;;
69588;SDS011;56792;50.644;17.984;2023-03-11T06:49:12;9.10;;;3.60;;
69588;SDS011;56792;50.644;17.984;2023-03-11T06:51:44;12.00;;;5.00;;
69588;SDS011;56792;50.644;17.984;2023-03-11T06:54:17;16.50;;;5.50;;
69588;SDS011;56792;50.644;17.984;2023-03-11T06:56:50;10.80;;;3.40;;
69588;SDS011;56792;50.644;17.984;2023-03-11T06:59:22;8.30;;;2.80;;
69588;SDS011;56792;50.644;17.984;2023-03-11T07:01:57;12.00;;;4.60;;
69588;SDS011;56792;50.644;17.984;2023-03-11T07:04:30;11.70;;;3.90;;
69588;SDS011;56792;50.644;17.984;2023-03-11T07:07:03;11.50;;;3.60;;
69588;SDS011;56792;50.644;17.984;2023-03-11T07:09:36;5.70;;;2.30;;
69588;SDS011;56792;50.644;17.984;2023-03-11T07:12:09;5.80;;;2.50;;
69588;SDS011;56792;50.644;17.984;2023-03-11T07:14:42;7.00;;;2.40;;
69588;SDS011;56792;50.644;17.984;2023-03-11T07:17:14;6.40;;;3.20;;
69588;SDS011;56792;50.644;17.984;2023-03-11T07:19:50;4.30;;;2.30;;
69588;SDS011;56792;50.644;17.984;2023-03-11T07:22:23;4.80;;;2.40;;
69588;SDS011;56792;50.644;17.984;2023-03-11T07:24:56;4.90;;;2.60;;
69588;SDS011;56792;50.644;17.984;2023-03-11T07:27:29;3.90;;;2.10;;
69588;SDS011;56792;50.644;17.984;2023-03-11T07:30:03;4.30;;;2.30;;
69588;SDS011;56792;50.644;17.984;2023-03-11T07:32:43;3.70;;;1.80;;
69588;SDS011;56792;50.644;17.984;2023-03-11T07:35:16;4.10;;;2.00;;
69588;SDS011;56792;50.644;17.984;2023-03-11T07:37:48;4.70;;;2.20;;
69588;SDS011;56792;50.644;17.984;2023-03-11T07:40:21;3.60;;;2.10;;
69588;SDS011;56792;50.644;17.984;2023-03-11T07:42:53;4.70;;;2.60;;
69588;SDS011;56792;50.644;17.984;2023-03-11T07:45:25;5.60;;;2.50;;
69588;SDS011;56792;50.644;17.984;2023-03-11T07:47:58;4.10;;;2.80;;
69588;SDS011;56792;50.644;17.984;2023-03-11T07:50:30;3.90;;;1.90;;
69588;SDS011;56792;50.644;17.984;2023-03-11T07:53:03;5.30;;;2.50;;
69588;SDS011;56792;50.644;17.984;2023-03-11T07:55:37;3.70;;;2.30;;
69588;SDS011;56792;50.644;17.984;2023-03-11T07:58:09;4.90;;;2.60;;
69588;SDS011;56792;50.644;17.984;2023-03-11T08:00:41;3.80;;;2.40;;
69588;SDS011;56792;50.644;17.984;2023-03-11T08:03:14;4.00;;;2.60;;
69588;SDS011;56792;50.644;17.984;2023-03-11T08:05:46;4.20;;;2.60;;
69588;SDS011;56792;50.644;17.984;2023-03-11T08:08:19;4.20;;;2.60;;
69588;SDS011;56792;50.644;17.984;2023-03-11T08:10:51;4.20;;;2.50;;
69588;SDS011;56792;50.644;17.984;2023-03-11T08:13:24;6.70;;;3.50;;
69588;SDS011;56792;50.644;17.984;2023-03-11T08:15:56;5.80;;;3.30;;
69588;SDS011;56792;50.644;17.984;2023-03-11T08:18:29;5.40;;;3.00;;
69588;SDS011;56792;50.644;17.984;2023-03-11T08:21:05;6.90;;;4.50;;
69588;SDS011;56792;50.644;17.984;2023-03-11T08:23:38;5.50;;;3.20;;
69588;SDS011;56792;50.644;17.984;2023-03-11T08:26:14;4.30;;;2.90;;
69588;SDS011;56792;50.644;17.984;2023-03-11T08:28:48;5.30;;;3.20;;
69588;SDS011;56792;50.644;17.984;2023-03-11T08:31:22;4.90;;;2.80;;
69588;SDS011;56792;50.644;17.984;2023-03-11T08:33:58;5.70;;;2.90;;
69588;SDS011;56792;50.644;17.984;2023-03-11T08:36:34;4.80;;;3.30;;
69588;SDS011;56792;50.644;17.984;2023-03-11T08:39:06;5.20;;;3.00;;
69588;SDS011;56792;50.644;17.984;2023-03-11T08:41:43;5.20;;;3.30;;
69588;SDS011;56792;50.644;17.984;2023-03-11T08:44:16;5.00;;;3.10;;
69588;SDS011;56792;50.644;17.984;2023-03-11T08:46:54;6.40;;;3.50;;
69588;SDS011;56792;50.644;17.984;2023-03-11T08:49:32;5.00;;;2.80;;
69588;SDS011;56792;50.644;17.984;2023-03-11T08:52:07;6.80;;;3.50;;
69588;SDS011;56792;50.644;17.984;2023-03-11T08:54:39;8.90;;;4.60;;
69588;SDS011;56792;50.644;17.984;2023-03-11T08:57:12;5.40;;;3.70;;
69588;SDS011;56792;50.644;17.984;2023-03-11T08:59:45;9.10;;;4.70;;
69588;SDS011;56792;50.644;17.984;2023-03-11T09:02:18;7.60;;;3.80;;
69588;SDS011;56792;50.644;17.984;2023-03-11T09:04:53;4.90;;;3.00;;
69588;SDS011;56792;50.644;17.984;2023-03-11T09:07:30;7.60;;;3.90;;
69588;SDS011;56792;50.644;17.984;2023-03-11T09:10:08;5.60;;;3.30;;
69588;SDS011;56792;50.644;17.984;2023-03-11T09:12:42;5.40;;;3.20;;
69588;SDS011;56792;50.644;17.984;2023-03-11T09:15:15;10.40;;;5.70;;
69588;SDS011;56792;50.644;17.984;2023-03-11T09:17:48;6.40;;;3.50;;
69588;SDS011;56792;50.644;17.984;2023-03-11T09:20:20;8.10;;;4.20;;
69588;SDS011;56792;50.644;17.984;2023-03-11T09:22:53;6.60;;;3.20;;
69588;SDS011;56792;50.644;17.984;2023-03-11T09:25:26;5.90;;;4.10;;
69588;SDS011;56792;50.644;17.984;2023-03-11T09:27:59;7.60;;;4.50;;
69588;SDS011;56792;50.644;17.984;2023-03-11T09:30:32;5.50;;;3.10;;
69588;SDS011;56792;50.644;17.984;2023-03-11T09:33:05;5.00;;;3.20;;
69588;SDS011;56792;50.644;17.984;2023-03-11T09:35:38;6.00;;;3.60;;
69588;SDS011;56792;50.644;17.984;2023-03-11T09:38:11;4.80;;;3.00;;
69588;SDS011;56792;50.644;17.984;2023-03-11T09:40:51;4.30;;;3.00;;
69588;SDS011;56792;50.644;17.984;2023-03-11T09:43:48;5.40;;;2.50;;
69588;SDS011;56792;50.644;17.984;2023-03-11T09:46:53;5.20;;;2.90;;
69588;SDS011;56792;50.644;17.984;2023-03-11T09:49:51;4.90;;;3.00;;
69588;SDS011;56792;50.644;17.984;2023-03-11T09:52:41;4.70;;;2.80;;
69588;SDS011;56792;50.644;17.984;2023-03-11T09:55:33;7.10;;;5.20;;
69588;SDS011;56792;50.644;17.984;2023-03-11T09:58:16;5.80;;;3.60;;
69588;SDS011;56792;50.644;17.984;2023-03-11T10:00:57;4.70;;;2.50;;
69588;SDS011;56792;50.644;17.984;2023-03-11T10:03:33;4.80;;;3.10;;
69588;SDS011;56792;50.644;17.984;2023-03-11T10:06:18;5.20;;;2.60;;
69588;SDS011;56792;50.644;17.984;2023-03-11T10:08:58;5.40;;;2.40;;
69588;SDS011;56792;50.644;17.984;2023-03-11T10:11:45;4.10;;;2.30;;
69588;SDS011;56792;50.644;17.984;2023-03-11T10:14:36;5.00;;;2.50;;
69588;SDS011;56792;50.644;17.984;2023-03-11T10:17:39;4.20;;;2.20;;
69588;SDS011;56792;50.644;17.984;2023-03-11T10:20:24;4.30;;;2.10;;
69588;SDS011;56792;50.644;17.984;2023-03-11T10:23:11;5.00;;;2.40;;
69588;SDS011;56792;50.644;17.984;2023-03-11T10:25:55;4.90;;;2.80;;
69588;SDS011;56792;50.644;17.984;2023-03-11T10:28:37;4.00;;;2.50;;
69588;SDS011;56792;50.644;17.984;2023-03-11T10:31:20;4.80;;;2.90;;
69588;SDS011;56792;50.644;17.984;2023-03-11T10:33:59;5.20;;;2.70;;
69588;SDS011;56792;50.644;17.984;2023-03-11T10:36:41;5.90;;;2.60;;
69588;SDS011;56792;50.644;17.984;2023-03-11T10:39:21;6.30;;;2.90;;
69588;SDS011;56792;50.644;17.984;2023-03-11T10:41:56;4.10;;;2.30;;
69588;SDS011;56792;50.644;17.984;2023-03-11T10:44:33;4.30;;;2.80;;
69588;SDS011;56792;50.644;17.984;2023-03-11T10:47:11;4.70;;;2.70;;
69588;SDS011;56792;50.644;17.984;2023-03-11T10:49:46;5.60;;;2.90;;
69588;SDS011;56792;50.644;17.984;2023-03-11T10:52:20;5.40;;;2.70;;
69588;SDS011;56792;50.644;17.984;2023-03-11T10:55:01;5.60;;;2.80;;
69588;SDS011;56792;50.644;17.984;2023-03-11T10:57:36;5.70;;;2.90;;
69588;SDS011;56792;50.644;17.984;2023-03-11T11:00:27;5.00;;;2.40;;
69588;SDS011;56792;50.644;17.984;2023-03-11T11:03:01;4.20;;;2.30;;
69588;SDS011;56792;50.644;17.984;2023-03-11T11:05:34;5.50;;;2.70;;
69588;SDS011;56792;50.644;17.984;2023-03-11T11:08:11;6.10;;;2.60;;
69588;SDS011;56792;50.644;17.984;2023-03-11T11:10:52;6.50;;;2.70;;
69588;SDS011;56792;50.644;17.984;2023-03-11T11:13:27;5.20;;;2.80;;
69588;SDS011;56792;50.644;17.984;2023-03-11T11:16:03;4.10;;;2.30;;
69588;SDS011;56792;50.644;17.984;2023-03-11T11:18:51;5.30;;;2.60;;
69588;SDS011;56792;50.644;17.984;2023-03-11T11:21:34;4.80;;;2.30;;
69588;SDS011;56792;50.644;17.984;2023-03-11T11:24:17;5.20;;;2.50;;
69588;SDS011;56792;50.644;17.984;2023-03-11T11:27:11;4.90;;;2.60;;
69588;SDS011;56792;50.644;17.984;2023-03-11T11:30:04;6.10;;;2.40;;
69588;SDS011;56792;50.644;17.984;2023-03-11T11:32:47;5.40;;;2.60;;
69588;SDS011;56792;50.644;17.984;2023-03-11T11:35:23;6.10;;;2.50;;
69588;SDS011;56792;50.644;17.984;2023-03-11T11:38:02;7.90;;;3.50;;
69588;SDS011;56792;50.644;17.984;2023-03-11T11:40:38;4.20;;;2.30;;
69588;SDS011;56792;50.644;17.984;2023-03-11T11:43:13;6.40;;;3.10;;
69588;SDS011;56792;50.644;17.984;2023-03-11T11:45:58;6.00;;;2.70;;
69588;SDS011;56792;50.644;17.984;2023-03-11T11:48:43;4.70;;;2.60;;
69588;SDS011;56792;50.644;17.984;2023-03-11T11:51:22;5.80;;;2.40;;
69588;SDS011;56792;50.644;17.984;2023-03-11T11:54:01;4.30;;;2.40;;
69588;SDS011;56792;50.644;17.984;2023-03-11T11:56:45;4.80;;;2.50;;
69588;SDS011;56792;50.644;17.984;2023-03-11T11:59:20;5.80;;;2.70;;
69588;SDS011;56792;50.644;17.984;2023-03-11T12:02:03;5.60;;;2.60;;
69588;SDS011;56792;50.644;17.984;2023-03-11T12:04:55;5.70;;;2.60;;
69588;SDS011;56792;50.644;17.984;2023-03-11T12:07:49;6.80;;;3.00;;
69588;SDS011;56792;50.644;17.984;2023-03-11T12:10:33;4.40;;;2.50;;
69588;SDS011;56792;50.644;17.984;2023-03-11T12:16:25;4.10;;;2.30;;
69588;SDS011;56792;50.644;17.984;2023-03-11T12:19:09;4.40;;;2.40;;
69588;SDS011;56792;50.644;17.984;2023-03-11T12:22:07;4.70;;;2.70;;
69588;SDS011;56792;50.644;17.984;2023-03-11T12:25:19;4.70;;;2.40;;
69588;SDS011;56792;50.644;17.984;2023-03-11T12:28:08;5.60;;;2.80;;
69588;SDS011;56792;50.644;17.984;2023-03-11T12:30:51;5.10;;;2.70;;
69588;SDS011;56792;50.644;17.984;2023-03-11T12:33:32;5.40;;;3.10;;
69588;SDS011;56792;50.644;17.984;2023-03-11T12:36:23;5.10;;;2.50;;
69588;SDS011;56792;50.644;17.984;2023-03-11T12:39:01;6.70;;;3.70;;
69588;SDS011;56792;50.644;17.984;2023-03-11T12:41:36;6.00;;;3.20;;
69588;SDS011;56792;50.644;17.984;2023-03-11T12:44:26;5.30;;;3.40;;
69588;SDS011;56792;50.644;17.984;2023-03-11T12:47:24;5.40;;;3.20;;
69588;SDS011;56792;50.644;17.984;2023-03-11T12:53:18;6.50;;;3.00;;
69588;SDS011;56792;50.644;17.984;2023-03-11T12:56:20;5.20;;;3.40;;
69588;SDS011;56792;50.644;17.984;2023-03-11T12:59:23;5.70;;;3.40;;
69588;SDS011;56792;50.644;17.984;2023-03-11T13:02:37;8.00;;;4.40;;
69588;SDS011;56792;50.644;17.984;2023-03-11T13:05:32;8.20;;;3.30;;
69588;SDS011;56792;50.644;17.984;2023-03-11T13:08:21;5.50;;;3.50;;
69588;SDS011;56792;50.644;17.984;2023-03-11T13:10:57;6.80;;;3.70;;
69588;SDS011;56792;50.644;17.984;2023-03-11T13:13:41;8.50;;;4.40;;
69588;SDS011;56792;50.644;17.984;2023-03-11T13:16:37;8.60;;;4.30;;
69588;SDS011;56792;50.644;17.984;2023-03-11T13:19:34;9.00;;;4.70;;
69588;SDS011;56792;50.644;17.984;2023-03-11T13:29:42;6.30;;;3.80;;
69588;SDS011;56792;50.644;17.984;2023-03-11T13:35:47;6.20;;;3.50;;
69588;SDS011;56792;50.644;17.984;2023-03-11T13:38:44;8.10;;;4.10;;
69588;SDS011;56792;50.644;17.984;2023-03-11T13:41:43;5.90;;;3.80;;
69588;SDS011;56792;50.644;17.984;2023-03-11T13:44:23;5.30;;;3.80;;
69588;SDS011;56792;50.644;17.984;2023-03-11T13:47:04;5.20;;;3.40;;
69588;SDS011;56792;50.644;17.984;2023-03-11T13:49:44;5.40;;;3.00;;
69588;SDS011;56792;50.644;17.984;2023-03-11T13:52:28;4.70;;;3.10;;
69588;SDS011;56792;50.644;17.984;2023-03-11T13:55:14;6.30;;;4.10;;
69588;SDS011;56792;50.644;17.984;2023-03-11T13:57:54;6.20;;;4.40;;
69588;SDS011;56792;50.644;17.984;2023-03-11T14:00:30;7.10;;;4.00;;
69588;SDS011;56792;50.644;17.984;2023-03-11T14:03:12;7.40;;;4.40;;
69588;SDS011;56792;50.644;17.984;2023-03-11T14:05:55;6.20;;;3.90;;
69588;SDS011;56792;50.644;17.984;2023-03-11T14:08:32;5.80;;;3.70;;
69588;SDS011;56792;50.644;17.984;2023-03-11T14:11:16;6.00;;;3.60;;
69588;SDS011;56792;50.644;17.984;2023-03-11T14:13:51;8.70;;;4.70;;
69588;SDS011;56792;50.644;17.984;2023-03-11T14:16:31;6.50;;;3.70;;
69588;SDS011;56792;50.644;17.984;2023-03-11T14:19:17;7.70;;;4.10;;
69588;SDS011;56792;50.644;17.984;2023-03-11T14:21:51;5.80;;;3.90;;
69588;SDS011;56792;50.644;17.984;2023-03-11T14:24:30;8.40;;;4.30;;
69588;SDS011;56792;50.644;17.984;2023-03-11T14:27:06;9.40;;;4.50;;
69588;SDS011;56792;50.644;17.984;2023-03-11T14:29:42;8.40;;;4.40;;
69588;SDS011;56792;50.644;17.984;2023-03-11T14:32:26;7.60;;;4.50;;
69588;SDS011;56792;50.644;17.984;2023-03-11T14:35:15;7.10;;;3.00;;
69588;SDS011;56792;50.644;17.984;2023-03-11T14:37:52;6.70;;;3.00;;
69588;SDS011;56792;50.644;17.984;2023-03-11T14:40:27;5.90;;;3.30;;
69588;SDS011;56792;50.644;17.984;2023-03-11T14:43:07;8.10;;;4.50;;
69588;SDS011;56792;50.644;17.984;2023-03-11T14:45:44;7.80;;;4.70;;
69588;SDS011;56792;50.644;17.984;2023-03-11T14:48:31;7.50;;;4.40;;
69588;SDS011;56792;50.644;17.984;2023-03-11T14:51:18;6.10;;;4.00;;
69588;SDS011;56792;50.644;17.984;2023-03-11T14:54:11;7.70;;;4.70;;
69588;SDS011;56792;50.644;17.984;2023-03-11T14:57:33;8.40;;;5.10;;
69588;SDS011;56792;50.644;17.984;2023-03-11T15:00:17;7.30;;;5.10;;
69588;SDS011;56792;50.644;17.984;2023-03-11T15:03:04;7.90;;;5.00;;
69588;SDS011;56792;50.644;17.984;2023-03-11T15:05:51;8.70;;;4.80;;
69588;SDS011;56792;50.644;17.984;2023-03-11T15:08:30;7.40;;;4.50;;
69588;SDS011;56792;50.644;17.984;2023-03-11T15:11:20;6.60;;;4.30;;
69588;SDS011;56792;50.644;17.984;2023-03-11T15:14:18;6.10;;;3.80;;
69588;SDS011;56792;50.644;17.984;2023-03-11T15:17:15;5.50;;;3.50;;
69588;SDS011;56792;50.644;17.984;2023-03-11T15:19:53;7.50;;;4.10;;
69588;SDS011;56792;50.644;17.984;2023-03-11T15:22:32;6.70;;;3.90;;
69588;SDS011;56792;50.644;17.984;2023-03-11T15:25:16;7.40;;;3.90;;
69588;SDS011;56792;50.644;17.984;2023-03-11T15:27:50;8.90;;;4.30;;
69588;SDS011;56792;50.644;17.984;2023-03-11T15:30:26;9.80;;;4.20;;
69588;SDS011;56792;50.644;17.984;2023-03-11T15:33:00;6.90;;;3.70;;
69588;SDS011;56792;50.644;17.984;2023-03-11T15:35:50;5.90;;;3.60;;
69588;SDS011;56792;50.644;17.984;2023-03-11T15:38:26;6.60;;;3.80;;
69588;SDS011;56792;50.644;17.984;2023-03-11T15:41:02;5.80;;;3.90;;
69588;SDS011;56792;50.644;17.984;2023-03-11T15:43:43;7.00;;;4.20;;
69588;SDS011;56792;50.644;17.984;2023-03-11T15:46:19;5.90;;;3.30;;
69588;SDS011;56792;50.644;17.984;2023-03-11T15:48:52;7.20;;;3.80;;
69588;SDS011;56792;50.644;17.984;2023-03-11T15:51:26;8.00;;;4.20;;